Terminal Aerodrome Forecast
Issued by NWS

Home | Current Version | Previous Version | Text Only | Print | Product List | Glossary On
Versions: 1 2 3 4 5 6 7 8 9 10 11 12
000
FTAK31 PAJN 260522
TAFAWG
TAF
PAWG 260522Z 2606/2706 22004KT P6SM OVC050
     FM261500 VRB03KT P6SM SCT005
     FM262000 31005KT P6SM BKN150
     FM270200 28004KT P6SM BKN150
      AMD LTD TO CLD VIS AND WIND 2606/2615=

USA.gov is the U.S. government's official web portal to all federal, state and local government web resources and services.